createdAt,value
2023-02-24T00:01:37.871Z,99702.03
2023-02-24T00:04:07.933Z,99699.50
2023-02-24T00:06:37.397Z,99700.31
2023-02-24T00:09:08.609Z,99696.94
2023-02-24T00:11:36.541Z,99697.03
2023-02-24T00:14:05.868Z,99690.91
2023-02-24T00:16:34.287Z,99690.06
2023-02-24T00:19:02.281Z,99690.16
2023-02-24T00:21:30.160Z,99685.81
2023-02-24T00:23:59.431Z,99679.78
2023-02-24T00:26:27.121Z,99680.84
2023-02-24T00:28:55.152Z,99680.19
2023-02-24T00:31:24.710Z,99688.34
2023-02-24T00:33:56.728Z,99688.34
2023-02-24T00:36:25.201Z,99670.66
2023-02-24T00:38:56.249Z,99674.91
2023-02-24T00:41:23.968Z,99667.84
2023-02-24T00:43:51.549Z,99666.97
2023-02-24T00:46:19.230Z,99660.00
2023-02-24T00:48:47.218Z,99668.78
2023-02-24T00:51:17.193Z,99662.66
2023-02-24T00:53:44.826Z,99659.25
2023-02-24T00:56:13.290Z,99649.63
2023-02-24T00:58:40.931Z,99647.00
2023-02-24T01:01:09.326Z,99648.88
2023-02-24T01:03:37.378Z,99642.75
2023-02-24T01:06:06.654Z,99636.59
2023-02-24T01:08:36.613Z,99633.22
2023-02-24T01:11:22.340Z,99639.47
2023-02-24T01:13:50.508Z,99626.47
2023-02-24T01:16:20.031Z,99631.75
2023-02-24T01:18:48.754Z,99628.34
2023-02-24T01:21:16.333Z,99624.88
2023-02-24T01:23:43.946Z,99624.09
2023-02-24T01:26:11.924Z,99620.72
2023-02-24T01:28:39.730Z,99622.53
2023-02-24T01:31:07.761Z,99623.47
2023-02-24T01:33:37.390Z,99620.81
2023-02-24T01:36:06.051Z,99620.81
2023-02-24T01:38:34.010Z,99612.88
2023-02-24T01:41:05.129Z,99613.09
2023-02-24T01:43:32.719Z,99616.69
2023-02-24T01:46:00.367Z,99611.41
2023-02-24T01:48:27.980Z,99616.47
2023-02-24T01:50:56.005Z,99604.03
2023-02-24T01:53:23.614Z,99611.97
2023-02-24T01:55:51.302Z,99601.41
2023-02-24T01:58:18.935Z,99597.91
2023-02-24T02:00:47.870Z,99598.13
2023-02-24T02:03:16.193Z,99594.69
2023-02-24T02:05:45.369Z,99590.50
2023-02-24T02:08:13.203Z,99583.50
2023-02-24T02:10:40.815Z,99589.00
2023-02-24T02:13:08.410Z,99588.13
2023-02-24T02:15:36.446Z,99575.78
2023-02-24T02:18:04.298Z,99577.47
2023-02-24T02:20:31.915Z,99577.47
2023-02-24T02:23:00.636Z,99575.03
2023-02-24T02:25:28.395Z,99569.00
2023-02-24T02:27:58.608Z,99562.97
2023-02-24T02:30:26.456Z,99553.34
2023-02-24T02:32:55.002Z,99549.00
2023-02-24T02:35:22.745Z,99552.78
2023-02-24T02:37:50.802Z,99535.44
2023-02-24T02:40:20.876Z,99539.22
2023-02-24T02:42:48.438Z,99528.88
2023-02-24T02:45:16.045Z,99526.53
2023-02-24T02:47:43.667Z,99518.06
2023-02-24T02:50:11.251Z,99518.19
2023-02-24T02:52:39.231Z,99517.34
2023-02-24T02:55:07.383Z,99504.22
2023-02-24T02:57:35.491Z,99512.06
2023-02-24T03:00:08.519Z,99506.03
2023-02-24T03:02:40.179Z,99502.53
2023-02-24T03:05:10.076Z,99505.19
2023-02-24T03:07:37.752Z,99493.88
2023-02-24T03:10:09.759Z,99498.13
2023-02-24T03:12:37.489Z,99499.91
2023-02-24T03:15:05.781Z,99492.84
2023-02-24T03:17:33.836Z,99494.63
2023-02-24T03:20:01.892Z,99485.88
2023-02-24T03:22:29.501Z,99484.16
2023-02-24T03:24:57.094Z,99476.34
2023-02-24T03:27:26.450Z,99472.03
2023-02-24T03:29:54.305Z,99471.16
2023-02-24T03:32:22.017Z,99477.31
2023-02-24T03:34:49.802Z,99465.88
2023-02-24T03:37:17.452Z,99467.78
2023-02-24T03:39:47.556Z,99464.38
2023-02-24T03:42:16.007Z,99462.81
2023-02-24T03:44:44.180Z,99457.63
2023-02-24T03:47:11.744Z,99459.63
2023-02-24T03:49:43.703Z,99453.59
2023-02-24T03:52:12.998Z,99448.31
2023-02-24T03:54:42.977Z,99462.47
2023-02-24T03:57:10.614Z,99463.41
2023-02-24T03:59:38.189Z,99460.75
2023-02-24T04:02:05.911Z,99460.75
2023-02-24T04:04:34.053Z,99461.72
2023-02-24T04:07:01.678Z,99461.84
2023-02-24T04:09:29.426Z,99455.69
2023-02-24T04:11:57.048Z,99459.38
2023-02-24T04:14:25.677Z,99460.41
2023-02-24T04:16:54.235Z,99457.03
2023-02-24T04:19:21.868Z,99455.44
2023-02-24T04:21:49.710Z,99458.22
2023-02-24T04:24:18.050Z,99452.06
2023-02-24T04:26:48.566Z,99450.47
2023-02-24T04:29:18.563Z,99445.41
2023-02-24T04:31:46.522Z,99447.31
2023-02-24T04:34:20.234Z,99440.53
2023-02-24T04:36:49.724Z,99443.25
2023-02-24T04:39:18.977Z,99444.41
2023-02-24T04:41:49.485Z,99442.72
2023-02-24T04:44:18.269Z,99441.03
2023-02-24T04:46:46.006Z,99435.75
2023-02-24T04:49:13.764Z,99433.00
2023-02-24T04:51:43.359Z,99435.63
2023-02-24T04:54:11.164Z,99433.13
2023-02-24T04:56:40.909Z,99428.88
2023-02-24T04:59:10.369Z,99428.13
2023-02-24T05:01:39.866Z,99422.97
2023-02-24T05:04:08.028Z,99417.03
2023-02-24T05:06:35.652Z,99414.72
2023-02-24T05:09:11.443Z,99414.06
2023-02-24T05:11:42.362Z,99411.72
2023-02-24T05:14:10.091Z,99408.44
2023-02-24T05:16:37.880Z,99401.44
2023-02-24T05:19:22.732Z,99398.94
2023-02-24T05:21:50.318Z,99399.00
2023-02-24T05:24:17.872Z,99394.69
2023-02-24T05:26:45.587Z,99394.69
2023-02-24T05:29:13.716Z,99393.84
2023-02-24T05:31:41.429Z,99386.78
2023-02-24T05:34:09.163Z,99377.19
2023-02-24T05:36:37.073Z,99379.72
2023-02-24T05:39:07.846Z,99380.47
2023-02-24T05:41:36.211Z,99378.78
2023-02-24T05:44:04.940Z,99379.72
2023-02-24T05:46:32.809Z,99379.81
2023-02-24T05:49:00.868Z,99371.19
2023-02-24T05:51:35.244Z,99367.69
2023-02-24T05:54:04.715Z,99359.03
2023-02-24T05:56:32.675Z,99366.94
2023-02-24T05:59:03.442Z,99361.75
2023-02-24T06:01:32.982Z,99348.66
2023-02-24T06:04:07.157Z,99353.09
2023-02-24T06:06:36.367Z,99348.56
2023-02-24T06:09:08.982Z,99345.06
2023-02-24T06:11:37.822Z,99345.84
2023-02-24T06:14:07.144Z,99346.81
2023-02-24T06:16:34.933Z,99341.53
2023-02-24T06:19:02.511Z,99340.66
2023-02-24T06:21:30.996Z,99338.88
2023-02-24T06:23:58.791Z,99327.41
2023-02-24T06:26:29.938Z,99329.09
2023-02-24T06:28:58.289Z,99330.78
2023-02-24T06:31:26.736Z,99324.63
2023-02-24T06:33:54.877Z,99329.91
2023-02-24T06:36:23.001Z,99323.91
2023-02-24T06:38:52.765Z,99325.72
2023-02-24T06:41:20.789Z,99317.69
2023-02-24T06:43:49.233Z,99315.91
2023-02-24T06:46:17.291Z,99319.50
2023-02-24T06:48:45.072Z,99315.03
2023-02-24T06:51:13.797Z,99315.03
2023-02-24T06:53:43.401Z,99312.41
2023-02-24T06:56:15.163Z,99304.63
2023-02-24T06:58:44.239Z,99302.81
2023-02-24T07:01:13.139Z,99309.03
2023-02-24T07:03:40.954Z,99300.09
2023-02-24T07:06:24.011Z,99300.09
2023-02-24T07:08:52.559Z,99300.09
2023-02-24T07:11:20.743Z,99290.38
2023-02-24T07:13:48.629Z,99294.72
2023-02-24T07:16:16.749Z,99291.00
2023-02-24T07:18:44.405Z,99284.91
2023-02-24T07:21:13.096Z,99290.09
2023-02-24T07:23:40.912Z,99292.59
2023-02-24T07:26:10.381Z,99291.78
2023-02-24T07:28:40.168Z,99291.66
2023-02-24T07:31:08.730Z,99285.44
2023-02-24T07:33:37.222Z,99279.22
2023-02-24T07:36:08.814Z,99273.97
2023-02-24T07:38:37.370Z,99277.41
2023-02-24T07:41:06.707Z,99273.09
2023-02-24T07:43:34.456Z,99269.41
2023-02-24T07:46:02.486Z,99270.25
2023-02-24T07:48:30.168Z,99257.81
2023-02-24T07:50:59.657Z,99257.81
2023-02-24T07:53:28.018Z,99254.25
2023-02-24T07:55:55.682Z,99249.78
2023-02-24T07:58:23.588Z,99242.53
2023-02-24T08:00:59.587Z,99229.25
2023-02-24T08:03:27.496Z,99235.25
2023-02-24T08:05:55.308Z,99231.66
2023-02-24T08:08:26.208Z,99225.78
2023-02-24T08:11:04.386Z,99222.19
2023-02-24T08:13:37.587Z,99215.84
2023-02-24T08:16:05.479Z,99213.19
2023-02-24T08:18:37.804Z,99203.59
2023-02-24T08:21:06.735Z,99206.16
2023-02-24T08:23:44.764Z,99198.13
2023-02-24T08:26:13.075Z,99191.19
2023-02-24T08:28:41.143Z,99189.47
2023-02-24T08:31:09.268Z,99192.09
2023-02-24T08:33:37.807Z,99198.31
2023-02-24T08:36:05.475Z,99188.00
2023-02-24T08:38:42.610Z,99185.28
2023-02-24T08:41:11.421Z,99178.91
2023-02-24T08:43:39.275Z,99167.44
2023-02-24T08:46:12.807Z,99176.81
2023-02-24T08:48:42.743Z,99167.63
2023-02-24T08:51:10.518Z,99163.50
2023-02-24T08:53:40.850Z,99152.53
2023-02-24T08:56:11.784Z,99158.44
2023-02-24T08:58:41.389Z,99146.84
2023-02-24T09:01:19.054Z,99147.56
2023-02-24T09:03:48.039Z,99147.47
2023-02-24T09:06:17.134Z,99144.94
2023-02-24T09:08:44.868Z,99138.94
2023-02-24T09:11:14.160Z,99139.13
2023-02-24T09:13:51.936Z,99135.66
2023-02-24T09:16:20.259Z,99129.53
2023-02-24T09:19:08.119Z,99132.16
2023-02-24T09:21:55.807Z,99133.13
2023-02-24T09:24:28.818Z,99129.63
2023-02-24T09:26:58.820Z,99126.16
2023-02-24T09:29:34.862Z,99127.75
2023-02-24T09:32:06.237Z,99117.06
2023-02-24T09:34:34.274Z,99116.72
2023-02-24T09:37:05.302Z,99115.66
2023-02-24T09:39:53.916Z,99107.56
2023-02-24T09:42:34.450Z,99109.97
2023-02-24T09:45:04.290Z,99105.63
2023-02-24T09:47:51.396Z,99096.03
2023-02-24T09:50:40.374Z,99086.66
2023-02-24T09:53:17.820Z,99088.56
2023-02-24T09:56:00.695Z,99082.56
2023-02-24T09:58:41.819Z,99088.78
2023-02-24T10:01:22.319Z,99078.97
2023-02-24T10:03:51.897Z,99078.97
2023-02-24T10:06:21.242Z,99075.38
2023-02-24T10:08:49.949Z,99071.03
2023-02-24T10:11:32.982Z,99061.44
2023-02-24T10:14:03.777Z,99064.91
2023-02-24T10:16:42.050Z,99042.03
2023-02-24T10:19:15.550Z,99048.25
2023-02-24T10:21:49.806Z,99049.09
2023-02-24T10:24:19.783Z,99038.53
2023-02-24T10:27:00.152Z,99033.25
2023-02-24T10:29:29.818Z,99033.25
2023-02-24T10:31:58.215Z,99027.00
2023-02-24T10:34:32.215Z,99026.19
2023-02-24T10:37:01.590Z,99021.00
2023-02-24T10:39:33.750Z,99027.34
2023-02-24T10:42:16.013Z,99037.19
2023-02-24T10:45:01.402Z,99019.56
2023-02-24T10:47:32.531Z,99024.00
2023-02-24T10:50:00.546Z,99018.09
2023-02-24T10:52:45.805Z,99006.91
2023-02-24T10:55:28.549Z,99002.69
2023-02-24T10:58:06.445Z,98997.56
2023-02-24T11:00:52.184Z,98996.38
2023-02-24T11:03:36.100Z,98980.53
2023-02-24T11:06:20.615Z,98992.28
2023-02-24T11:09:02.919Z,98985.53
2023-02-24T11:11:31.214Z,98985.88
2023-02-24T11:14:16.494Z,98969.66
2023-02-24T11:17:01.843Z,98964.56
2023-02-24T11:19:30.259Z,98963.31
2023-02-24T11:21:58.088Z,98963.03
2023-02-24T11:24:26.182Z,98953.06
2023-02-24T11:26:54.262Z,98941.88
2023-02-24T11:29:22.335Z,98937.66
2023-02-24T11:31:52.889Z,98938.97
2023-02-24T11:34:20.728Z,98933.16
2023-02-24T11:36:48.609Z,98929.91
2023-02-24T11:39:21.190Z,98920.53
2023-02-24T11:41:51.124Z,98913.91
2023-02-24T11:44:20.556Z,98913.50
2023-02-24T11:46:48.409Z,98904.97
2023-02-24T11:49:16.248Z,98896.97
2023-02-24T11:51:45.050Z,98892.53
2023-02-24T11:54:12.992Z,98889.78
2023-02-24T11:56:42.825Z,98880.50
2023-02-24T11:59:11.440Z,98879.44
2023-02-24T12:01:40.559Z,98883.75
2023-02-24T12:04:08.449Z,98871.53
2023-02-24T12:06:36.697Z,98864.78
2023-02-24T12:09:07.999Z,98866.69
2023-02-24T12:11:35.955Z,98866.59
2023-02-24T12:14:04.022Z,98862.38
2023-02-24T12:16:33.480Z,98852.06
2023-02-24T12:19:01.385Z,98850.50
2023-02-24T12:21:31.036Z,98847.97
2023-02-24T12:23:58.737Z,98844.59
2023-02-24T12:26:26.712Z,98840.78
2023-02-24T12:28:54.570Z,98836.25
2023-02-24T12:31:22.680Z,98830.88
2023-02-24T12:33:51.686Z,98831.72
2023-02-24T12:36:21.279Z,98825.59
2023-02-24T12:38:49.082Z,98817.81
2023-02-24T12:41:16.935Z,98812.53
2023-02-24T12:43:45.688Z,98811.59
2023-02-24T12:46:13.931Z,98811.81
2023-02-24T12:48:41.773Z,98798.97
2023-02-24T12:51:09.723Z,98800.88
2023-02-24T12:53:37.577Z,98800.38
2023-02-24T12:56:05.727Z,98798.06
2023-02-24T12:58:34.760Z,98786.91
2023-02-24T13:01:02.787Z,98783.56
2023-02-24T13:03:30.721Z,98781.63
2023-02-24T13:05:58.792Z,98780.91
2023-02-24T13:08:26.671Z,98771.44
2023-02-24T13:10:54.995Z,98767.22
2023-02-24T13:13:23.453Z,98775.22
2023-02-24T13:15:51.440Z,98767.31
2023-02-24T13:18:19.207Z,98762.91
2023-02-24T13:20:47.224Z,98756.78
2023-02-24T13:23:15.539Z,98756.19
2023-02-24T13:25:43.459Z,98749.13
2023-02-24T13:28:11.458Z,98764.06
2023-02-24T13:30:39.876Z,98754.50
2023-02-24T13:33:07.766Z,98734.50
2023-02-24T13:35:36.298Z,98732.09
2023-02-24T13:38:04.213Z,98733.91
2023-02-24T13:40:32.214Z,98731.38
2023-02-24T13:43:00.307Z,98730.50
2023-02-24T13:45:29.319Z,98715.56
2023-02-24T13:48:01.356Z,98709.25
2023-02-24T13:50:30.260Z,98718.94
2023-02-24T13:52:58.035Z,98712.22
2023-02-24T13:55:25.963Z,98716.72
2023-02-24T13:57:53.922Z,98716.97
2023-02-24T14:00:23.241Z,98718.03
2023-02-24T14:02:53.254Z,98720.66
2023-02-24T14:05:21.178Z,98716.44
2023-02-24T14:07:49.089Z,98713.72
2023-02-24T14:10:18.884Z,98705.91
2023-02-24T14:12:47.518Z,98716.44
2023-02-24T14:15:15.431Z,98705.91
2023-02-24T14:17:43.623Z,98713.09
2023-02-24T14:20:11.980Z,98689.31
2023-02-24T14:22:39.745Z,98686.53
2023-02-24T14:25:09.825Z,98692.75
2023-02-24T14:27:37.861Z,98690.03
2023-02-24T14:30:05.785Z,98695.19
2023-02-24T14:32:33.665Z,98695.19
2023-02-24T14:35:01.644Z,98689.06
2023-02-24T14:37:29.977Z,98688.97
2023-02-24T14:39:58.424Z,98694.94
2023-02-24T14:42:26.394Z,98691.38
2023-02-24T14:44:54.265Z,98695.81
2023-02-24T14:47:22.069Z,98684.31
2023-02-24T14:49:50.297Z,98682.50
2023-02-24T14:52:18.168Z,98670.81
2023-02-24T14:54:46.132Z,98680.41
2023-02-24T14:57:14.114Z,98682.06
2023-02-24T14:59:42.125Z,98676.81
2023-02-24T15:02:10.957Z,98673.22
2023-02-24T15:04:39.835Z,98673.00
2023-02-24T15:07:07.845Z,98669.19
2023-02-24T15:09:35.689Z,98668.75
2023-02-24T15:12:03.636Z,98663.25
2023-02-24T15:14:32.350Z,98661.34
2023-02-24T15:17:00.749Z,98648.06
2023-02-24T15:19:28.830Z,98639.09
2023-02-24T15:21:57.005Z,98634.53
2023-02-24T15:24:24.924Z,98644.16
2023-02-24T15:26:53.760Z,98638.66
2023-02-24T15:29:21.703Z,98639.34
2023-02-24T15:31:49.809Z,98628.63
2023-02-24T15:34:17.831Z,98635.56
2023-02-24T15:36:45.723Z,98623.22
2023-02-24T15:39:14.605Z,98621.19
2023-02-24T15:41:42.487Z,98634.00
2023-02-24T15:44:10.684Z,98621.44
2023-02-24T15:46:38.570Z,98614.16
2023-02-24T15:49:06.643Z,98599.91
2023-02-24T15:51:35.285Z,98608.41
2023-02-24T15:54:03.185Z,98600.16
2023-02-24T15:56:31.273Z,98588.56
2023-02-24T15:59:02.743Z,98580.66
2023-02-24T16:01:30.849Z,98580.53
2023-02-24T16:03:59.563Z,98576.94
2023-02-24T16:06:28.669Z,98574.31
2023-02-24T16:08:56.512Z,98567.22
2023-02-24T16:11:24.483Z,98559.22
2023-02-24T16:13:52.402Z,98564.47
2023-02-24T16:16:21.298Z,98562.56
2023-02-24T16:18:49.872Z,98555.41
2023-02-24T16:21:17.875Z,98557.88
2023-02-24T16:23:45.753Z,98554.28
2023-02-24T16:26:13.789Z,98557.53
2023-02-24T16:28:43.776Z,98548.53
2023-02-24T16:31:11.916Z,98556.34
2023-02-24T16:33:53.719Z,98558.72
2023-02-24T16:36:22.301Z,98566.41
2023-02-24T16:38:52.199Z,98577.69
2023-02-24T16:41:20.189Z,98575.75
2023-02-24T16:43:48.185Z,98581.75
2023-02-24T16:46:16.325Z,98589.53
2023-02-24T16:48:44.837Z,98587.75
2023-02-24T16:51:13.132Z,98587.63
2023-02-24T16:53:41.264Z,98590.03
2023-02-24T16:56:09.172Z,98579.38
2023-02-24T16:58:36.906Z,98573.84
2023-02-24T17:01:04.936Z,98571.91
2023-02-24T17:03:33.461Z,98572.75
2023-02-24T17:06:01.201Z,98572.50
2023-02-24T17:08:29.525Z,98575.03
2023-02-24T17:10:57.789Z,98580.06
2023-02-24T17:13:25.663Z,98580.06
2023-02-24T17:15:56.245Z,98568.69
2023-02-24T17:18:24.002Z,98578.97
2023-02-24T17:20:51.840Z,98576.22
2023-02-24T17:23:19.691Z,98576.13
2023-02-24T17:25:47.552Z,98575.97
2023-02-24T17:28:16.069Z,98571.44
2023-02-24T17:30:44.179Z,98566.88
2023-02-24T17:33:14.495Z,98566.63
2023-02-24T17:35:42.375Z,98562.91
2023-02-24T17:38:10.312Z,98562.78
2023-02-24T17:40:38.948Z,98567.91
2023-02-24T17:43:07.144Z,98574.75
2023-02-24T17:45:35.449Z,98570.06
2023-02-24T17:48:03.256Z,98584.72
2023-02-24T17:50:31.158Z,98570.44
2023-02-24T17:53:01.136Z,98570.19
2023-02-24T17:55:28.976Z,98576.06
2023-02-24T17:57:57.341Z,98574.00
2023-02-24T18:00:25.461Z,98576.38
2023-02-24T18:02:53.546Z,98571.84
2023-02-24T18:05:22.331Z,98582.41
2023-02-24T18:07:50.289Z,98585.97
2023-02-24T18:10:18.264Z,98594.03
2023-02-24T18:12:46.051Z,98600.28
2023-02-24T18:15:14.432Z,98593.31
2023-02-24T18:17:42.712Z,98597.75
2023-02-24T18:20:12.460Z,98585.53
2023-02-24T18:22:40.372Z,98590.91
2023-02-24T18:25:08.356Z,98594.53
2023-02-24T18:27:36.170Z,98588.28
2023-02-24T18:30:05.031Z,98593.56
2023-02-24T18:32:33.385Z,98598.03
2023-02-24T18:35:01.371Z,98603.31
2023-02-24T18:37:29.753Z,98597.06
2023-02-24T18:39:57.810Z,98598.72
2023-02-24T18:42:26.299Z,98603.03
2023-02-24T18:44:54.243Z,98603.84
2023-02-24T18:47:22.106Z,98615.28
2023-02-24T18:49:49.966Z,98612.63
2023-02-24T18:52:17.830Z,98607.72
2023-02-24T18:54:46.285Z,98615.91
2023-02-24T18:57:14.110Z,98610.72
2023-02-24T18:59:42.506Z,98610.03
2023-02-24T19:02:10.392Z,98611.22
2023-02-24T19:04:38.360Z,98617.81
2023-02-24T19:07:08.190Z,98623.22
2023-02-24T19:09:35.999Z,98626.22
2023-02-24T19:12:03.847Z,98613.38
2023-02-24T19:14:32.137Z,98619.63
2023-02-24T19:17:01.404Z,98625.03
2023-02-24T19:19:30.039Z,98626.94
2023-02-24T19:21:58.454Z,98633.28
2023-02-24T19:24:26.438Z,98634.47
2023-02-24T19:26:54.375Z,98629.34
2023-02-24T19:29:22.500Z,98641.47
2023-02-24T19:31:54.678Z,98646.50
2023-02-24T19:34:22.993Z,98648.88
2023-02-24T19:36:51.027Z,98642.66
2023-02-24T19:39:18.876Z,98651.50
2023-02-24T19:41:49.457Z,98656.19
2023-02-24T19:44:19.801Z,98649.13
2023-02-24T19:46:47.802Z,98647.78
2023-02-24T19:49:15.708Z,98655.31
2023-02-24T19:51:46.622Z,98653.72
2023-02-24T19:54:16.276Z,98664.97
2023-02-24T19:56:44.862Z,98666.22
2023-02-24T19:59:12.721Z,98662.16
2023-02-24T20:01:41.963Z,98659.63
2023-02-24T20:04:10.107Z,98664.81
2023-02-24T20:06:38.026Z,98675.09
2023-02-24T20:09:06.675Z,98677.38
2023-02-24T20:11:34.706Z,98673.56
2023-02-24T20:14:02.675Z,98686.16
2023-02-24T20:16:32.848Z,98680.44
2023-02-24T20:19:01.000Z,98682.72
2023-02-24T20:21:29.784Z,98692.19
2023-02-24T20:23:57.671Z,98692.81
2023-02-24T20:26:26.249Z,98690.63
2023-02-24T20:28:54.197Z,98687.63
2023-02-24T20:31:22.622Z,98685.09
2023-02-24T20:33:51.250Z,98682.25
2023-02-24T20:36:19.098Z,98689.06
2023-02-24T20:38:46.949Z,98692.31
2023-02-24T20:41:14.798Z,98691.13
2023-02-24T20:43:42.593Z,98697.03
2023-02-24T20:46:10.735Z,98694.28
2023-02-24T20:48:38.929Z,98694.38
2023-02-24T20:51:06.813Z,98695.44
2023-02-24T20:53:37.971Z,98693.16
2023-02-24T20:56:14.577Z,98699.59
2023-02-24T20:58:42.712Z,98695.75
2023-02-24T21:01:10.578Z,98699.94
2023-02-24T21:03:38.419Z,98703.13
2023-02-24T21:06:10.126Z,98700.09
2023-02-24T21:08:38.879Z,98699.59
2023-02-24T21:11:10.933Z,98694.56
2023-02-24T21:13:38.929Z,98694.56
2023-02-24T21:16:06.792Z,98702.38
2023-02-24T21:18:35.114Z,98694.13
2023-02-24T21:21:02.975Z,98693.78
2023-02-24T21:23:31.023Z,98681.44
2023-02-24T21:25:58.966Z,98686.84
2023-02-24T21:28:26.803Z,98686.94
2023-02-24T21:30:55.352Z,98696.63
2023-02-24T21:33:23.622Z,98685.16
2023-02-24T21:35:51.672Z,98695.56
2023-02-24T21:38:19.552Z,98700.72
2023-02-24T21:40:49.352Z,98698.09
2023-02-24T21:43:18.062Z,98706.94
2023-02-24T21:45:48.265Z,98708.97
2023-02-24T21:48:16.199Z,98718.78
2023-02-24T21:50:44.141Z,98709.19
2023-02-24T21:53:13.435Z,98716.88
2023-02-24T21:55:41.338Z,98719.50
2023-02-24T21:58:09.664Z,98711.59
2023-02-24T22:00:37.760Z,98711.59
2023-02-24T22:03:05.693Z,98720.22
2023-02-24T22:05:34.092Z,98706.09
2023-02-24T22:08:02.215Z,98707.66
2023-02-24T22:10:30.556Z,98717.25
2023-02-24T22:12:58.689Z,98708.38
2023-02-24T22:15:27.026Z,98713.66
2023-02-24T22:17:54.991Z,98704.06
2023-02-24T22:20:22.788Z,98702.28
2023-02-24T22:22:51.165Z,98707.44
2023-02-24T22:25:19.216Z,98713.66
2023-02-24T22:27:47.146Z,98712.84
2023-02-24T22:30:15.514Z,98706.72
2023-02-24T22:32:43.446Z,98716.44
2023-02-24T22:35:11.638Z,98715.56
2023-02-24T22:37:41.613Z,98723.47
2023-02-24T22:40:09.498Z,98722.63
2023-02-24T22:42:37.482Z,98727.88
2023-02-24T22:45:05.133Z,98726.09
2023-02-24T22:47:33.477Z,98722.53
2023-02-24T22:50:01.560Z,98728.66
2023-02-24T22:52:29.345Z,98732.94
2023-02-24T22:54:57.244Z,98737.38
2023-02-24T22:57:24.961Z,98733.78
2023-02-24T22:59:53.684Z,98732.09
2023-02-24T23:02:23.232Z,98739.28
2023-02-24T23:04:51.657Z,98742.97
2023-02-24T23:07:19.389Z,98744.03
2023-02-24T23:09:53.172Z,98743.41
2023-02-24T23:12:21.379Z,98749.03
2023-02-24T23:14:49.559Z,98744.81
2023-02-24T23:17:17.551Z,98749.38
2023-02-24T23:19:45.294Z,98750.44
2023-02-24T23:22:14.865Z,98765.41
2023-02-24T23:24:42.996Z,98768.75
2023-02-24T23:27:10.938Z,98772.25
2023-02-24T23:29:38.597Z,98764.22
2023-02-24T23:32:06.653Z,98768.53
2023-02-24T23:34:34.428Z,98767.69
2023-02-24T23:37:02.572Z,98768.53
2023-02-24T23:39:30.427Z,98779.91
2023-02-24T23:41:58.091Z,98769.38
2023-02-24T23:44:26.210Z,98786.84
2023-02-24T23:46:53.849Z,98781.59
2023-02-24T23:49:21.884Z,98793.69
2023-02-24T23:51:49.761Z,98782.22
2023-02-24T23:54:17.508Z,98791.69
2023-02-24T23:56:45.338Z,98786.41
2023-02-24T23:59:13.124Z,98791.78
